Hemsby, United Kingdom
Current Conditions -  °F | °C
As of 4:50 PM on Tuesday 27 Jan 2015 (Local Time) from EGSD Reporting Station
Broken Clouds Broken Clouds  
Wind Chill: 40°   Ceiling: 2500
Heat Index: 45°   Visibility: 6mi
Dew Point: 43°   Wind: 8mph
Humidity: 93%   Direction: 230°SW
Pressure: 30.21"   Gusts: NA
Location:  52.7°N, 1.69°E
Report Text: EGSD 271650Z 23007KT 9999 BKN025 07/06 Q1023
Loading
Personal Weather Stations






























Interactive Weather Map New forecast layout! Learn more

10-Day Weather Forecast

Advertisements
Track Severe Weather on mobile